sensor_id;sensor_type;location;lat;lon;timestamp;P1;durP1;ratioP1;P2;durP2;ratioP2
15878;SDS011;61999;51.514;14.614;2023-02-28T00:01:31;10.07;;;6.37;;
15878;SDS011;61999;51.514;14.614;2023-02-28T00:04:00;10.50;;;6.30;;
15878;SDS011;61999;51.514;14.614;2023-02-28T00:06:28;9.53;;;6.33;;
15878;SDS011;61999;51.514;14.614;2023-02-28T00:08:56;10.40;;;6.87;;
15878;SDS011;61999;51.514;14.614;2023-02-28T00:11:25;10.63;;;6.50;;
15878;SDS011;61999;51.514;14.614;2023-02-28T00:13:54;8.00;;;5.60;;
15878;SDS011;61999;51.514;14.614;2023-02-28T00:16:23;7.90;;;5.03;;
15878;SDS011;61999;51.514;14.614;2023-02-28T00:18:51;7.00;;;5.30;;
15878;SDS011;61999;51.514;14.614;2023-02-28T00:21:19;6.63;;;4.33;;
15878;SDS011;61999;51.514;14.614;2023-02-28T00:23:47;8.20;;;5.13;;
15878;SDS011;61999;51.514;14.614;2023-02-28T00:26:16;11.77;;;7.30;;
15878;SDS011;61999;51.514;14.614;2023-02-28T00:28:46;8.33;;;6.33;;
15878;SDS011;61999;51.514;14.614;2023-02-28T00:31:14;12.03;;;6.50;;
15878;SDS011;61999;51.514;14.614;2023-02-28T00:33:43;10.13;;;6.67;;
15878;SDS011;61999;51.514;14.614;2023-02-28T00:36:12;11.43;;;6.60;;
15878;SDS011;61999;51.514;14.614;2023-02-28T00:38:40;10.07;;;6.30;;
15878;SDS011;61999;51.514;14.614;2023-02-28T00:41:08;9.50;;;6.90;;
15878;SDS011;61999;51.514;14.614;2023-02-28T00:43:37;7.90;;;6.00;;
15878;SDS011;61999;51.514;14.614;2023-02-28T00:46:06;12.60;;;7.50;;
15878;SDS011;61999;51.514;14.614;2023-02-28T00:48:36;10.97;;;6.87;;
15878;SDS011;61999;51.514;14.614;2023-02-28T00:51:06;10.30;;;7.13;;
15878;SDS011;61999;51.514;14.614;2023-02-28T00:53:33;11.30;;;7.60;;
15878;SDS011;61999;51.514;14.614;2023-02-28T00:56:02;11.23;;;7.83;;
15878;SDS011;61999;51.514;14.614;2023-02-28T00:58:30;12.07;;;7.20;;
15878;SDS011;61999;51.514;14.614;2023-02-28T01:00:58;10.87;;;6.90;;
15878;SDS011;61999;51.514;14.614;2023-02-28T01:03:26;11.13;;;6.87;;
15878;SDS011;61999;51.514;14.614;2023-02-28T01:05:54;12.23;;;7.43;;
15878;SDS011;61999;51.514;14.614;2023-02-28T01:08:24;12.07;;;7.67;;
15878;SDS011;61999;51.514;14.614;2023-02-28T01:10:53;13.17;;;7.77;;
15878;SDS011;61999;51.514;14.614;2023-02-28T01:13:21;14.00;;;7.40;;
15878;SDS011;61999;51.514;14.614;2023-02-28T01:15:52;11.00;;;7.07;;
15878;SDS011;61999;51.514;14.614;2023-02-28T01:18:23;13.53;;;8.33;;
15878;SDS011;61999;51.514;14.614;2023-02-28T01:20:51;11.80;;;7.83;;
15878;SDS011;61999;51.514;14.614;2023-02-28T01:23:20;13.43;;;7.67;;
15878;SDS011;61999;51.514;14.614;2023-02-28T01:25:51;10.73;;;7.30;;
15878;SDS011;61999;51.514;14.614;2023-02-28T01:28:19;11.93;;;7.00;;
15878;SDS011;61999;51.514;14.614;2023-02-28T01:30:48;10.90;;;7.20;;
15878;SDS011;61999;51.514;14.614;2023-02-28T01:33:17;11.17;;;6.93;;
15878;SDS011;61999;51.514;14.614;2023-02-28T01:35:45;12.17;;;7.37;;
15878;SDS011;61999;51.514;14.614;2023-02-28T01:38:13;10.50;;;7.00;;
15878;SDS011;61999;51.514;14.614;2023-02-28T01:40:48;9.93;;;7.07;;
15878;SDS011;61999;51.514;14.614;2023-02-28T01:43:20;12.80;;;6.90;;
15878;SDS011;61999;51.514;14.614;2023-02-28T01:45:51;10.17;;;7.00;;
15878;SDS011;61999;51.514;14.614;2023-02-28T01:48:23;11.30;;;7.13;;
15878;SDS011;61999;51.514;14.614;2023-02-28T01:50:57;13.00;;;7.60;;
15878;SDS011;61999;51.514;14.614;2023-02-28T01:53:33;10.57;;;7.67;;
15878;SDS011;61999;51.514;14.614;2023-02-28T01:56:08;11.83;;;6.60;;
15878;SDS011;61999;51.514;14.614;2023-02-28T01:58:46;13.90;;;7.40;;
15878;SDS011;61999;51.514;14.614;2023-02-28T02:01:15;11.17;;;6.73;;
15878;SDS011;61999;51.514;14.614;2023-02-28T02:03:47;11.43;;;7.23;;
15878;SDS011;61999;51.514;14.614;2023-02-28T02:06:21;10.53;;;7.10;;
15878;SDS011;61999;51.514;14.614;2023-02-28T02:08:50;11.13;;;6.10;;
15878;SDS011;61999;51.514;14.614;2023-02-28T02:11:20;12.40;;;6.30;;
15878;SDS011;61999;51.514;14.614;2023-02-28T02:13:59;10.03;;;6.40;;
15878;SDS011;61999;51.514;14.614;2023-02-28T02:17:13;9.47;;;6.10;;
15878;SDS011;61999;51.514;14.614;2023-02-28T02:20:06;10.10;;;6.53;;
15878;SDS011;61999;51.514;14.614;2023-02-28T02:23:27;11.13;;;6.40;;
15878;SDS011;61999;51.514;14.614;2023-02-28T02:26:42;8.57;;;5.73;;
15878;SDS011;61999;51.514;14.614;2023-02-28T02:30:08;9.00;;;5.53;;
15878;SDS011;61999;51.514;14.614;2023-02-28T02:33:16;12.20;;;6.43;;
15878;SDS011;61999;51.514;14.614;2023-02-28T02:36:18;12.47;;;6.37;;
15878;SDS011;61999;51.514;14.614;2023-02-28T02:38:52;11.07;;;7.10;;
15878;SDS011;61999;51.514;14.614;2023-02-28T02:41:31;9.90;;;6.40;;
15878;SDS011;61999;51.514;14.614;2023-02-28T02:44:10;9.80;;;6.10;;
15878;SDS011;61999;51.514;14.614;2023-02-28T02:46:43;10.27;;;6.80;;
15878;SDS011;61999;51.514;14.614;2023-02-28T02:49:15;11.20;;;5.97;;
15878;SDS011;61999;51.514;14.614;2023-02-28T02:51:50;8.73;;;6.13;;
15878;SDS011;61999;51.514;14.614;2023-02-28T02:54:22;12.40;;;7.00;;
15878;SDS011;61999;51.514;14.614;2023-02-28T02:56:55;12.53;;;7.73;;
15878;SDS011;61999;51.514;14.614;2023-02-28T02:59:28;12.53;;;7.13;;
15878;SDS011;61999;51.514;14.614;2023-02-28T03:01:58;10.87;;;7.80;;
15878;SDS011;61999;51.514;14.614;2023-02-28T03:04:32;9.60;;;6.73;;
15878;SDS011;61999;51.514;14.614;2023-02-28T03:07:08;10.43;;;7.47;;
15878;SDS011;61999;51.514;14.614;2023-02-28T03:09:37;10.17;;;7.57;;
15878;SDS011;61999;51.514;14.614;2023-02-28T03:12:06;11.00;;;6.50;;
15878;SDS011;61999;51.514;14.614;2023-02-28T03:14:42;9.40;;;6.30;;
15878;SDS011;61999;51.514;14.614;2023-02-28T03:17:31;10.40;;;6.67;;
15878;SDS011;61999;51.514;14.614;2023-02-28T03:20:35;11.33;;;6.33;;
15878;SDS011;61999;51.514;14.614;2023-02-28T03:23:15;13.83;;;7.37;;
15878;SDS011;61999;51.514;14.614;2023-02-28T03:25:52;14.50;;;6.93;;
15878;SDS011;61999;51.514;14.614;2023-02-28T03:28:29;10.90;;;6.73;;
15878;SDS011;61999;51.514;14.614;2023-02-28T03:31:09;12.30;;;7.80;;
15878;SDS011;61999;51.514;14.614;2023-02-28T03:33:47;9.40;;;6.83;;
15878;SDS011;61999;51.514;14.614;2023-02-28T03:36:25;11.43;;;6.97;;
15878;SDS011;61999;51.514;14.614;2023-02-28T03:38:59;10.00;;;7.00;;
15878;SDS011;61999;51.514;14.614;2023-02-28T03:41:32;12.07;;;7.53;;
15878;SDS011;61999;51.514;14.614;2023-02-28T03:44:09;11.50;;;7.70;;
15878;SDS011;61999;51.514;14.614;2023-02-28T03:46:44;11.50;;;6.93;;
15878;SDS011;61999;51.514;14.614;2023-02-28T03:49:20;14.40;;;7.83;;
15878;SDS011;61999;51.514;14.614;2023-02-28T03:51:58;10.97;;;7.27;;
15878;SDS011;61999;51.514;14.614;2023-02-28T03:54:35;13.37;;;8.07;;
15878;SDS011;61999;51.514;14.614;2023-02-28T03:57:10;14.43;;;8.27;;
15878;SDS011;61999;51.514;14.614;2023-02-28T03:59:47;11.50;;;7.60;;
15878;SDS011;61999;51.514;14.614;2023-02-28T04:02:23;13.07;;;7.63;;
15878;SDS011;61999;51.514;14.614;2023-02-28T04:04:51;14.13;;;8.70;;
15878;SDS011;61999;51.514;14.614;2023-02-28T04:07:19;15.87;;;9.03;;
15878;SDS011;61999;51.514;14.614;2023-02-28T04:09:49;14.80;;;9.40;;
15878;SDS011;61999;51.514;14.614;2023-02-28T04:12:18;16.03;;;9.20;;
15878;SDS011;61999;51.514;14.614;2023-02-28T04:14:49;14.77;;;9.07;;
15878;SDS011;61999;51.514;14.614;2023-02-28T04:17:17;12.93;;;7.83;;
15878;SDS011;61999;51.514;14.614;2023-02-28T04:19:45;12.90;;;7.80;;
15878;SDS011;61999;51.514;14.614;2023-02-28T04:22:13;11.53;;;7.40;;
15878;SDS011;61999;51.514;14.614;2023-02-28T04:24:43;12.07;;;7.53;;
15878;SDS011;61999;51.514;14.614;2023-02-28T04:27:12;14.93;;;8.37;;
15878;SDS011;61999;51.514;14.614;2023-02-28T04:29:41;11.73;;;7.87;;
15878;SDS011;61999;51.514;14.614;2023-02-28T04:32:10;14.60;;;7.90;;
15878;SDS011;61999;51.514;14.614;2023-02-28T04:34:38;13.17;;;8.10;;
15878;SDS011;61999;51.514;14.614;2023-02-28T04:37:06;12.60;;;8.30;;
15878;SDS011;61999;51.514;14.614;2023-02-28T04:39:39;15.77;;;8.90;;
15878;SDS011;61999;51.514;14.614;2023-02-28T04:42:08;18.43;;;10.60;;
15878;SDS011;61999;51.514;14.614;2023-02-28T04:44:38;16.40;;;9.33;;
15878;SDS011;61999;51.514;14.614;2023-02-28T04:47:06;16.33;;;8.83;;
15878;SDS011;61999;51.514;14.614;2023-02-28T04:49:34;16.73;;;10.27;;
15878;SDS011;61999;51.514;14.614;2023-02-28T04:52:02;17.27;;;10.57;;
15878;SDS011;61999;51.514;14.614;2023-02-28T04:54:30;15.47;;;9.60;;
15878;SDS011;61999;51.514;14.614;2023-02-28T04:56:58;15.00;;;9.30;;
15878;SDS011;61999;51.514;14.614;2023-02-28T04:59:27;14.47;;;8.67;;
15878;SDS011;61999;51.514;14.614;2023-02-28T05:01:56;12.60;;;8.17;;
15878;SDS011;61999;51.514;14.614;2023-02-28T05:04:24;16.37;;;8.87;;
15878;SDS011;61999;51.514;14.614;2023-02-28T05:06:53;14.67;;;9.23;;
15878;SDS011;61999;51.514;14.614;2023-02-28T05:09:21;13.53;;;8.67;;
15878;SDS011;61999;51.514;14.614;2023-02-28T05:11:49;21.07;;;9.97;;
15878;SDS011;61999;51.514;14.614;2023-02-28T05:14:17;16.30;;;9.97;;
15878;SDS011;61999;51.514;14.614;2023-02-28T05:16:45;17.60;;;10.00;;
15878;SDS011;61999;51.514;14.614;2023-02-28T05:19:14;17.03;;;9.53;;
15878;SDS011;61999;51.514;14.614;2023-02-28T05:21:48;16.17;;;9.73;;
15878;SDS011;61999;51.514;14.614;2023-02-28T05:24:19;14.27;;;8.60;;
15878;SDS011;61999;51.514;14.614;2023-02-28T05:26:49;12.60;;;7.80;;
15878;SDS011;61999;51.514;14.614;2023-02-28T05:29:20;12.57;;;7.30;;
15878;SDS011;61999;51.514;14.614;2023-02-28T05:31:48;13.67;;;7.27;;
15878;SDS011;61999;51.514;14.614;2023-02-28T05:34:17;11.93;;;6.73;;
15878;SDS011;61999;51.514;14.614;2023-02-28T05:36:46;14.03;;;7.30;;
15878;SDS011;61999;51.514;14.614;2023-02-28T05:39:14;11.17;;;6.93;;
15878;SDS011;61999;51.514;14.614;2023-02-28T05:41:42;9.23;;;5.83;;
15878;SDS011;61999;51.514;14.614;2023-02-28T05:44:11;10.77;;;6.43;;
15878;SDS011;61999;51.514;14.614;2023-02-28T05:46:39;13.83;;;7.50;;
15878;SDS011;61999;51.514;14.614;2023-02-28T05:49:07;10.00;;;6.47;;
15878;SDS011;61999;51.514;14.614;2023-02-28T05:51:37;11.70;;;6.87;;
15878;SDS011;61999;51.514;14.614;2023-02-28T05:54:06;11.90;;;7.47;;
15878;SDS011;61999;51.514;14.614;2023-02-28T05:56:34;10.50;;;6.60;;
15878;SDS011;61999;51.514;14.614;2023-02-28T05:59:05;11.97;;;7.37;;
15878;SDS011;61999;51.514;14.614;2023-02-28T06:01:34;11.73;;;7.67;;
15878;SDS011;61999;51.514;14.614;2023-02-28T06:04:05;14.67;;;8.60;;
15878;SDS011;61999;51.514;14.614;2023-02-28T06:06:49;11.53;;;7.87;;
15878;SDS011;61999;51.514;14.614;2023-02-28T06:09:17;10.87;;;7.57;;
15878;SDS011;61999;51.514;14.614;2023-02-28T06:11:46;12.80;;;7.80;;
15878;SDS011;61999;51.514;14.614;2023-02-28T06:14:15;11.60;;;7.70;;
15878;SDS011;61999;51.514;14.614;2023-02-28T06:16:45;10.93;;;6.90;;
15878;SDS011;61999;51.514;14.614;2023-02-28T06:19:13;11.00;;;7.57;;
15878;SDS011;61999;51.514;14.614;2023-02-28T06:21:41;8.77;;;7.20;;
15878;SDS011;61999;51.514;14.614;2023-02-28T06:24:11;9.23;;;6.97;;
15878;SDS011;61999;51.514;14.614;2023-02-28T06:26:39;11.73;;;7.27;;
15878;SDS011;61999;51.514;14.614;2023-02-28T06:29:07;10.10;;;6.27;;
15878;SDS011;61999;51.514;14.614;2023-02-28T06:31:35;11.17;;;6.63;;
15878;SDS011;61999;51.514;14.614;2023-02-28T06:34:04;10.53;;;7.33;;
15878;SDS011;61999;51.514;14.614;2023-02-28T06:36:32;11.00;;;7.20;;
15878;SDS011;61999;51.514;14.614;2023-02-28T06:39:00;11.80;;;7.47;;
15878;SDS011;61999;51.514;14.614;2023-02-28T06:41:30;11.63;;;7.77;;
15878;SDS011;61999;51.514;14.614;2023-02-28T06:44:18;13.43;;;9.53;;
15878;SDS011;61999;51.514;14.614;2023-02-28T06:46:47;13.60;;;9.10;;
15878;SDS011;61999;51.514;14.614;2023-02-28T06:49:15;12.30;;;9.53;;
15878;SDS011;61999;51.514;14.614;2023-02-28T06:51:44;11.73;;;8.10;;
15878;SDS011;61999;51.514;14.614;2023-02-28T06:54:13;9.23;;;6.63;;
15878;SDS011;61999;51.514;14.614;2023-02-28T06:56:42;8.63;;;6.33;;
15878;SDS011;61999;51.514;14.614;2023-02-28T06:59:10;11.03;;;7.33;;
15878;SDS011;61999;51.514;14.614;2023-02-28T07:01:38;11.03;;;7.00;;
15878;SDS011;61999;51.514;14.614;2023-02-28T07:04:07;7.43;;;5.67;;
15878;SDS011;61999;51.514;14.614;2023-02-28T07:06:35;9.50;;;5.90;;
15878;SDS011;61999;51.514;14.614;2023-02-28T07:09:03;7.30;;;5.47;;
15878;SDS011;61999;51.514;14.614;2023-02-28T07:11:31;8.83;;;6.10;;
15878;SDS011;61999;51.514;14.614;2023-02-28T07:14:00;10.67;;;5.43;;
15878;SDS011;61999;51.514;14.614;2023-02-28T07:16:28;7.10;;;5.50;;
15878;SDS011;61999;51.514;14.614;2023-02-28T07:18:56;9.63;;;6.43;;
15878;SDS011;61999;51.514;14.614;2023-02-28T07:21:24;8.37;;;5.80;;
15878;SDS011;61999;51.514;14.614;2023-02-28T07:23:55;9.17;;;5.73;;
15878;SDS011;61999;51.514;14.614;2023-02-28T07:26:23;11.07;;;6.73;;
15878;SDS011;61999;51.514;14.614;2023-02-28T07:28:51;11.37;;;6.77;;
15878;SDS011;61999;51.514;14.614;2023-02-28T07:31:21;11.17;;;6.73;;
15878;SDS011;61999;51.514;14.614;2023-02-28T07:33:50;11.47;;;6.23;;
15878;SDS011;61999;51.514;14.614;2023-02-28T07:36:19;10.33;;;7.67;;
15878;SDS011;61999;51.514;14.614;2023-02-28T07:38:47;11.87;;;7.40;;
15878;SDS011;61999;51.514;14.614;2023-02-28T07:41:17;16.73;;;10.03;;
15878;SDS011;61999;51.514;14.614;2023-02-28T07:43:47;19.47;;;11.10;;
15878;SDS011;61999;51.514;14.614;2023-02-28T07:46:16;15.30;;;10.07;;
15878;SDS011;61999;51.514;14.614;2023-02-28T07:48:47;13.93;;;8.70;;
15878;SDS011;61999;51.514;14.614;2023-02-28T07:51:15;22.13;;;13.10;;
15878;SDS011;61999;51.514;14.614;2023-02-28T07:53:43;19.13;;;11.27;;
15878;SDS011;61999;51.514;14.614;2023-02-28T07:56:11;19.93;;;12.33;;
15878;SDS011;61999;51.514;14.614;2023-02-28T07:58:39;20.73;;;14.37;;
15878;SDS011;61999;51.514;14.614;2023-02-28T08:01:07;15.90;;;11.00;;
15878;SDS011;61999;51.514;14.614;2023-02-28T08:03:38;14.00;;;9.93;;
15878;SDS011;61999;51.514;14.614;2023-02-28T08:06:14;14.63;;;9.80;;
15878;SDS011;61999;51.514;14.614;2023-02-28T08:08:45;13.40;;;9.30;;
15878;SDS011;61999;51.514;14.614;2023-02-28T08:11:13;13.43;;;9.13;;
15878;SDS011;61999;51.514;14.614;2023-02-28T08:13:43;13.50;;;8.80;;
15878;SDS011;61999;51.514;14.614;2023-02-28T08:16:12;14.77;;;9.07;;
15878;SDS011;61999;51.514;14.614;2023-02-28T08:18:43;15.00;;;9.80;;
15878;SDS011;61999;51.514;14.614;2023-02-28T08:21:13;14.77;;;10.67;;
15878;SDS011;61999;51.514;14.614;2023-02-28T08:23:41;22.87;;;15.87;;
15878;SDS011;61999;51.514;14.614;2023-02-28T08:26:08;28.17;;;19.53;;
15878;SDS011;61999;51.514;14.614;2023-02-28T08:28:37;23.27;;;18.33;;
15878;SDS011;61999;51.514;14.614;2023-02-28T08:31:09;21.40;;;16.00;;
15878;SDS011;61999;51.514;14.614;2023-02-28T08:33:39;16.60;;;12.80;;
15878;SDS011;61999;51.514;14.614;2023-02-28T08:36:08;17.50;;;12.20;;
15878;SDS011;61999;51.514;14.614;2023-02-28T08:38:38;14.83;;;11.17;;
15878;SDS011;61999;51.514;14.614;2023-02-28T08:41:06;15.03;;;10.03;;
15878;SDS011;61999;51.514;14.614;2023-02-28T08:43:37;12.87;;;9.50;;
15878;SDS011;61999;51.514;14.614;2023-02-28T08:46:06;14.30;;;9.40;;
15878;SDS011;61999;51.514;14.614;2023-02-28T08:48:35;13.33;;;9.47;;
15878;SDS011;61999;51.514;14.614;2023-02-28T08:51:05;13.17;;;9.40;;
15878;SDS011;61999;51.514;14.614;2023-02-28T08:53:36;12.40;;;8.43;;
15878;SDS011;61999;51.514;14.614;2023-02-28T08:56:08;11.23;;;8.53;;
15878;SDS011;61999;51.514;14.614;2023-02-28T08:58:39;10.10;;;8.10;;
15878;SDS011;61999;51.514;14.614;2023-02-28T09:01:08;11.70;;;8.13;;
15878;SDS011;61999;51.514;14.614;2023-02-28T09:03:38;13.07;;;7.67;;
15878;SDS011;61999;51.514;14.614;2023-02-28T09:06:08;9.10;;;6.47;;
15878;SDS011;61999;51.514;14.614;2023-02-28T09:08:39;7.67;;;5.87;;
15878;SDS011;61999;51.514;14.614;2023-02-28T09:11:08;9.53;;;6.30;;
15878;SDS011;61999;51.514;14.614;2023-02-28T09:13:36;6.03;;;5.00;;
15878;SDS011;61999;51.514;14.614;2023-02-28T09:16:06;6.70;;;5.50;;
15878;SDS011;61999;51.514;14.614;2023-02-28T09:18:38;6.40;;;5.10;;
15878;SDS011;61999;51.514;14.614;2023-02-28T09:21:08;6.27;;;4.90;;
15878;SDS011;61999;51.514;14.614;2023-02-28T09:23:41;6.27;;;4.83;;
15878;SDS011;61999;51.514;14.614;2023-02-28T09:26:12;5.23;;;4.67;;
15878;SDS011;61999;51.514;14.614;2023-02-28T09:28:43;6.00;;;4.23;;
15878;SDS011;61999;51.514;14.614;2023-02-28T09:31:12;4.57;;;4.13;;
15878;SDS011;61999;51.514;14.614;2023-02-28T09:33:41;7.17;;;5.13;;
15878;SDS011;61999;51.514;14.614;2023-02-28T09:36:09;8.30;;;6.33;;
15878;SDS011;61999;51.514;14.614;2023-02-28T09:38:37;9.00;;;6.83;;
15878;SDS011;61999;51.514;14.614;2023-02-28T09:41:11;8.00;;;5.87;;
15878;SDS011;61999;51.514;14.614;2023-02-28T09:43:44;6.13;;;5.30;;
15878;SDS011;61999;51.514;14.614;2023-02-28T09:46:21;7.17;;;5.13;;
15878;SDS011;61999;51.514;14.614;2023-02-28T09:48:58;4.80;;;3.93;;
15878;SDS011;61999;51.514;14.614;2023-02-28T09:51:33;5.27;;;4.70;;
15878;SDS011;61999;51.514;14.614;2023-02-28T09:54:13;4.80;;;3.60;;
15878;SDS011;61999;51.514;14.614;2023-02-28T09:56:47;4.10;;;3.70;;
15878;SDS011;61999;51.514;14.614;2023-02-28T09:59:25;6.83;;;5.20;;
15878;SDS011;61999;51.514;14.614;2023-02-28T10:02:21;5.30;;;4.70;;
15878;SDS011;61999;51.514;14.614;2023-02-28T10:05:19;6.37;;;4.23;;
15878;SDS011;61999;51.514;14.614;2023-02-28T10:08:03;6.20;;;4.73;;
15878;SDS011;61999;51.514;14.614;2023-02-28T10:10:41;5.70;;;4.40;;
15878;SDS011;61999;51.514;14.614;2023-02-28T10:13:14;6.10;;;4.47;;
15878;SDS011;61999;51.514;14.614;2023-02-28T10:15:51;5.63;;;4.30;;
15878;SDS011;61999;51.514;14.614;2023-02-28T10:18:24;5.97;;;4.47;;
15878;SDS011;61999;51.514;14.614;2023-02-28T10:21:00;5.33;;;4.20;;
15878;SDS011;61999;51.514;14.614;2023-02-28T10:23:31;8.50;;;7.60;;
15878;SDS011;61999;51.514;14.614;2023-02-28T10:26:08;7.07;;;6.37;;
15878;SDS011;61999;51.514;14.614;2023-02-28T10:28:43;6.97;;;6.27;;
15878;SDS011;61999;51.514;14.614;2023-02-28T10:31:14;6.90;;;5.67;;
15878;SDS011;61999;51.514;14.614;2023-02-28T10:33:46;6.33;;;5.40;;
15878;SDS011;61999;51.514;14.614;2023-02-28T10:36:16;5.47;;;4.37;;
15878;SDS011;61999;51.514;14.614;2023-02-28T10:38:47;4.23;;;3.70;;
15878;SDS011;61999;51.514;14.614;2023-02-28T10:41:26;4.37;;;3.77;;
15878;SDS011;61999;51.514;14.614;2023-02-28T10:44:15;6.67;;;5.30;;
15878;SDS011;61999;51.514;14.614;2023-02-28T10:46:48;11.97;;;4.27;;
15878;SDS011;61999;51.514;14.614;2023-02-28T10:49:19;4.30;;;3.90;;
15878;SDS011;61999;51.514;14.614;2023-02-28T10:51:52;5.80;;;5.17;;
15878;SDS011;61999;51.514;14.614;2023-02-28T10:54:24;6.30;;;5.27;;
15878;SDS011;61999;51.514;14.614;2023-02-28T10:57:08;4.77;;;4.07;;
15878;SDS011;61999;51.514;14.614;2023-02-28T10:59:46;6.07;;;5.47;;
15878;SDS011;61999;51.514;14.614;2023-02-28T11:02:29;4.63;;;4.23;;
15878;SDS011;61999;51.514;14.614;2023-02-28T11:05:01;4.57;;;3.77;;
15878;SDS011;61999;51.514;14.614;2023-02-28T11:07:29;3.97;;;3.57;;
15878;SDS011;61999;51.514;14.614;2023-02-28T11:10:17;4.87;;;4.37;;
15878;SDS011;61999;51.514;14.614;2023-02-28T11:12:48;4.47;;;3.87;;
15878;SDS011;61999;51.514;14.614;2023-02-28T11:15:21;4.97;;;4.03;;
15878;SDS011;61999;51.514;14.614;2023-02-28T11:17:53;6.20;;;5.03;;
15878;SDS011;61999;51.514;14.614;2023-02-28T11:20:25;6.37;;;4.80;;
15878;SDS011;61999;51.514;14.614;2023-02-28T11:22:58;4.50;;;4.10;;
15878;SDS011;61999;51.514;14.614;2023-02-28T11:25:30;4.53;;;4.03;;
15878;SDS011;61999;51.514;14.614;2023-02-28T11:28:02;5.17;;;4.67;;
15878;SDS011;61999;51.514;14.614;2023-02-28T11:30:36;5.17;;;4.63;;
15878;SDS011;61999;51.514;14.614;2023-02-28T11:33:21;5.10;;;4.53;;
15878;SDS011;61999;51.514;14.614;2023-02-28T11:35:53;5.50;;;4.80;;
15878;SDS011;61999;51.514;14.614;2023-02-28T11:38:27;8.27;;;6.97;;
15878;SDS011;61999;51.514;14.614;2023-02-28T11:41:01;8.33;;;7.00;;
15878;SDS011;61999;51.514;14.614;2023-02-28T11:44:03;20.87;;;16.97;;
15878;SDS011;61999;51.514;14.614;2023-02-28T11:46:52;9.90;;;8.33;;
15878;SDS011;61999;51.514;14.614;2023-02-28T11:49:30;6.30;;;5.17;;
15878;SDS011;61999;51.514;14.614;2023-02-28T11:52:12;5.97;;;5.37;;
15878;SDS011;61999;51.514;14.614;2023-02-28T11:54:55;6.50;;;5.47;;
15878;SDS011;61999;51.514;14.614;2023-02-28T11:57:50;5.67;;;5.03;;
15878;SDS011;61999;51.514;14.614;2023-02-28T12:00:40;6.83;;;5.30;;
15878;SDS011;61999;51.514;14.614;2023-02-28T12:03:33;6.20;;;5.60;;
15878;SDS011;61999;51.514;14.614;2023-02-28T12:06:20;5.67;;;4.93;;
15878;SDS011;61999;51.514;14.614;2023-02-28T12:09:02;14.03;;;11.07;;
15878;SDS011;61999;51.514;14.614;2023-02-28T12:11:48;5.23;;;4.57;;
15878;SDS011;61999;51.514;14.614;2023-02-28T12:14:25;5.63;;;5.07;;
15878;SDS011;61999;51.514;14.614;2023-02-28T12:17:25;5.00;;;4.57;;
15878;SDS011;61999;51.514;14.614;2023-02-28T12:20:12;6.23;;;4.83;;
15878;SDS011;61999;51.514;14.614;2023-02-28T12:22:54;5.23;;;4.73;;
15878;SDS011;61999;51.514;14.614;2023-02-28T12:25:48;6.60;;;5.70;;
15878;SDS011;61999;51.514;14.614;2023-02-28T12:28:30;5.97;;;5.00;;
15878;SDS011;61999;51.514;14.614;2023-02-28T12:31:11;5.90;;;5.30;;
15878;SDS011;61999;51.514;14.614;2023-02-28T12:34:27;5.87;;;5.17;;
15878;SDS011;61999;51.514;14.614;2023-02-28T12:37:05;4.40;;;4.00;;
15878;SDS011;61999;51.514;14.614;2023-02-28T12:39:44;5.30;;;4.43;;
15878;SDS011;61999;51.514;14.614;2023-02-28T12:42:20;4.17;;;3.77;;
15878;SDS011;61999;51.514;14.614;2023-02-28T12:45:01;4.63;;;4.23;;
15878;SDS011;61999;51.514;14.614;2023-02-28T12:47:36;5.07;;;4.20;;
15878;SDS011;61999;51.514;14.614;2023-02-28T12:50:10;5.17;;;4.37;;
15878;SDS011;61999;51.514;14.614;2023-02-28T12:52:41;4.83;;;4.43;;
15878;SDS011;61999;51.514;14.614;2023-02-28T12:55:26;4.33;;;3.70;;
15878;SDS011;61999;51.514;14.614;2023-02-28T12:58:07;4.03;;;3.63;;
15878;SDS011;61999;51.514;14.614;2023-02-28T13:00:52;4.33;;;3.70;;
15878;SDS011;61999;51.514;14.614;2023-02-28T13:04:05;5.07;;;4.17;;
15878;SDS011;61999;51.514;14.614;2023-02-28T13:07:00;3.77;;;3.47;;
15878;SDS011;61999;51.514;14.614;2023-02-28T13:10:00;4.93;;;4.43;;
15878;SDS011;61999;51.514;14.614;2023-02-28T13:12:33;4.73;;;4.00;;
15878;SDS011;61999;51.514;14.614;2023-02-28T13:15:04;4.67;;;4.27;;
15878;SDS011;61999;51.514;14.614;2023-02-28T13:17:38;4.67;;;3.93;;
15878;SDS011;61999;51.514;14.614;2023-02-28T13:20:14;4.50;;;4.10;;
15878;SDS011;61999;51.514;14.614;2023-02-28T13:22:49;4.20;;;3.80;;
15878;SDS011;61999;51.514;14.614;2023-02-28T13:31:27;4.50;;;4.10;;
15878;SDS011;61999;51.514;14.614;2023-02-28T13:34:11;4.93;;;4.43;;
15878;SDS011;61999;51.514;14.614;2023-02-28T13:36:42;4.87;;;4.23;;
15878;SDS011;61999;51.514;14.614;2023-02-28T13:42:33;5.07;;;4.43;;
15878;SDS011;61999;51.514;14.614;2023-02-28T13:45:20;4.53;;;3.87;;
15878;SDS011;61999;51.514;14.614;2023-02-28T13:47:54;4.73;;;4.33;;
15878;SDS011;61999;51.514;14.614;2023-02-28T13:50:29;5.40;;;4.87;;
15878;SDS011;61999;51.514;14.614;2023-02-28T13:53:13;4.73;;;4.27;;
15878;SDS011;61999;51.514;14.614;2023-02-28T13:56:22;5.37;;;4.87;;
15878;SDS011;61999;51.514;14.614;2023-02-28T13:59:06;6.00;;;5.37;;
15878;SDS011;61999;51.514;14.614;2023-02-28T14:01:51;5.30;;;4.70;;
15878;SDS011;61999;51.514;14.614;2023-02-28T14:04:50;5.40;;;4.70;;
15878;SDS011;61999;51.514;14.614;2023-02-28T14:07:30;6.90;;;6.20;;
15878;SDS011;61999;51.514;14.614;2023-02-28T14:10:07;6.53;;;5.67;;
15878;SDS011;61999;51.514;14.614;2023-02-28T14:12:52;5.90;;;5.30;;
15878;SDS011;61999;51.514;14.614;2023-02-28T14:15:40;6.30;;;5.33;;
15878;SDS011;61999;51.514;14.614;2023-02-28T14:18:48;5.00;;;4.60;;
15878;SDS011;61999;51.514;14.614;2023-02-28T14:21:23;6.40;;;5.73;;
15878;SDS011;61999;51.514;14.614;2023-02-28T14:24:03;5.63;;;4.97;;
15878;SDS011;61999;51.514;14.614;2023-02-28T14:27:23;5.50;;;4.57;;
15878;SDS011;61999;51.514;14.614;2023-02-28T14:30:10;5.13;;;4.57;;
15878;SDS011;61999;51.514;14.614;2023-02-28T14:33:22;5.53;;;4.90;;
15878;SDS011;61999;51.514;14.614;2023-02-28T14:36:12;5.57;;;5.07;;
15878;SDS011;61999;51.514;14.614;2023-02-28T14:38:47;5.60;;;5.10;;
15878;SDS011;61999;51.514;14.614;2023-02-28T14:41:21;5.10;;;4.60;;
15878;SDS011;61999;51.514;14.614;2023-02-28T14:43:53;5.27;;;4.70;;
15878;SDS011;61999;51.514;14.614;2023-02-28T14:46:25;5.70;;;5.10;;
15878;SDS011;61999;51.514;14.614;2023-02-28T14:49:03;5.70;;;5.10;;
15878;SDS011;61999;51.514;14.614;2023-02-28T14:51:33;6.57;;;4.83;;
15878;SDS011;61999;51.514;14.614;2023-02-28T14:54:02;6.97;;;6.27;;
15878;SDS011;61999;51.514;14.614;2023-02-28T14:56:34;6.73;;;5.17;;
15878;SDS011;61999;51.514;14.614;2023-02-28T14:59:27;6.03;;;5.00;;
15878;SDS011;61999;51.514;14.614;2023-02-28T15:04:53;5.07;;;4.50;;
15878;SDS011;61999;51.514;14.614;2023-02-28T15:07:23;6.17;;;5.33;;
15878;SDS011;61999;51.514;14.614;2023-02-28T15:10:09;5.77;;;4.73;;
15878;SDS011;61999;51.514;14.614;2023-02-28T15:12:49;5.80;;;5.23;;
15878;SDS011;61999;51.514;14.614;2023-02-28T15:15:29;6.07;;;5.47;;
15878;SDS011;61999;51.514;14.614;2023-02-28T15:18:29;6.50;;;5.47;;
15878;SDS011;61999;51.514;14.614;2023-02-28T15:21:11;5.93;;;5.33;;
15878;SDS011;61999;51.514;14.614;2023-02-28T15:23:44;5.40;;;4.90;;